Time;durP1;ratioP1;P1;durP2;ratioP2;P2;SDS_P1;SDS_P2;PMS_P1;PMS_P2;Temp;Humidity;BMP_temperature;BMP_pressure;BME280_temperature;BME280_humidity;BME280_pressure;Samples;Min_cycle;Max_cycle;Signal;HPM_P1;HPM_P2
2023/08/12 00:01:49;;;;;;;3.47;2.50;;;;;;;;;;5019516;28;20176;-52
2023/08/12 00:04:16;;;;;;;6.37;2.60;;;;;;;;;;5036950;28;20171;-49
2023/08/12 00:06:42;;;;;;;7.20;2.73;;;;;;;;;;5037334;28;20232;-48
2023/08/12 00:09:08;;;;;;;3.40;2.80;;;;;;;;;;5019561;28;20213;-49
2023/08/12 00:11:35;;;;;;;5.60;3.53;;;;;;;;;;5036051;28;20169;-51
2023/08/12 00:14:01;;;;;;;9.17;4.00;;;;;;;;;;5036022;28;20170;-53
2023/08/12 00:16:28;;;;;;;3.27;2.50;;;;;;;;;;5016059;28;20340;-52
2023/08/12 00:18:54;;;;;;;8.00;3.50;;;;;;;;;;5016436;28;20589;-51
2023/08/12 00:21:20;;;;;;;4.43;2.60;;;;;;;;;;5019932;28;20190;-50
2023/08/12 00:23:47;;;;;;;3.43;2.30;;;;;;;;;;5020220;28;20174;-51
2023/08/12 00:26:13;;;;;;;4.40;2.50;;;;;;;;;;5019287;28;20177;-51
2023/08/12 00:28:39;;;;;;;3.03;2.70;;;;;;;;;;5019905;28;20544;-52
2023/08/12 00:31:05;;;;;;;5.67;2.60;;;;;;;;;;5037473;28;20158;-49
2023/08/12 00:33:32;;;;;;;3.87;2.20;;;;;;;;;;5020062;28;20512;-52
2023/08/12 00:35:58;;;;;;;2.70;2.17;;;;;;;;;;5019793;28;20272;-53
2023/08/12 00:38:24;;;;;;;6.40;2.20;;;;;;;;;;5020268;28;20165;-48
2023/08/12 00:40:50;;;;;;;2.87;1.90;;;;;;;;;;5036658;28;20185;-50
2023/08/12 00:43:16;;;;;;;2.53;1.87;;;;;;;;;;5036679;28;20166;-51
2023/08/12 00:45:43;;;;;;;2.63;2.20;;;;;;;;;;5020106;28;20173;-52
2023/08/12 00:48:09;;;;;;;3.37;1.83;;;;;;;;;;5019504;28;20178;-49
2023/08/12 00:50:37;;;;;;;2.63;1.93;;;;;;;;;;5020001;28;20552;-51
2023/08/12 00:53:05;;;;;;;2.33;2.00;;;;;;;;;;5019615;28;20509;-51
2023/08/12 00:55:32;;;;;;;3.73;2.40;;;;;;;;;;5019881;28;20228;-48
2023/08/12 00:57:59;;;;;;;3.57;1.87;;;;;;;;;;5019133;28;20174;-48
2023/08/12 01:00:25;;;;;;;12.83;2.80;;;;;;;;;;5019563;28;20367;-48
2023/08/12 01:02:52;;;;;;;4.33;2.20;;;;;;;;;;5019498;28;20189;-51
2023/08/12 01:05:19;;;;;;;5.40;1.90;;;;;;;;;;5036821;28;20244;-49
2023/08/12 01:07:46;;;;;;;2.50;2.13;;;;;;;;;;5040414;28;20577;-48
2023/08/12 01:10:15;;;;;;;3.30;2.53;;;;;;;;;;5023044;28;20264;-49
2023/08/12 01:12:56;;;;;;;2.53;1.90;;;;;;;;;;5038797;28;20181;-50
2023/08/12 01:15:24;;;;;;;3.17;1.90;;;;;;;;;;5040206;28;20542;-50
2023/08/12 01:17:52;;;;;;;2.57;2.20;;;;;;;;;;5022778;28;20181;-49
2023/08/12 01:20:26;;;;;;;4.67;1.90;;;;;;;;;;5039920;28;20217;-50
2023/08/12 01:23:19;;;;;;;2.30;2.10;;;;;;;;;;5023235;28;20221;-49
2023/08/12 01:25:46;;;;;;;2.13;1.67;;;;;;;;;;5019720;28;20212;-49
2023/08/12 01:28:12;;;;;;;3.17;2.10;;;;;;;;;;5023313;28;20170;-52
2023/08/12 01:30:52;;;;;;;2.27;1.90;;;;;;;;;;5023201;28;20177;-50
2023/08/12 01:33:22;;;;;;;2.67;2.00;;;;;;;;;;5023366;28;20591;-51
2023/08/12 01:35:53;;;;;;;3.23;2.00;;;;;;;;;;5022656;28;20180;-49
2023/08/12 01:38:20;;;;;;;5.80;2.40;;;;;;;;;;5022433;28;20235;-52
2023/08/12 01:40:46;;;;;;;5.50;2.30;;;;;;;;;;5022316;28;20685;-50
2023/08/12 01:43:12;;;;;;;4.60;2.03;;;;;;;;;;5039267;28;20167;-54
2023/08/12 01:45:38;;;;;;;3.00;2.03;;;;;;;;;;5022728;28;20507;-53
2023/08/12 01:48:04;;;;;;;3.37;2.20;;;;;;;;;;5022119;28;20504;-49
2023/08/12 01:50:30;;;;;;;4.87;2.10;;;;;;;;;;5040676;28;20648;-54
2023/08/12 01:52:57;;;;;;;2.73;1.97;;;;;;;;;;5022748;28;20239;-54
2023/08/12 01:55:23;;;;;;;2.53;1.73;;;;;;;;;;5040070;28;20263;-50
2023/08/12 01:57:49;;;;;;;3.83;1.93;;;;;;;;;;5040146;28;20257;-49
2023/08/12 02:00:16;;;;;;;6.73;2.47;;;;;;;;;;5040325;28;20198;-49
2023/08/12 02:02:41;;;;;;;4.20;1.90;;;;;;;;;;5039557;28;20268;-48
2023/08/12 02:05:08;;;;;;;2.20;1.87;;;;;;;;;;5040678;28;20388;-51
2023/08/12 02:07:34;;;;;;;1.83;1.73;;;;;;;;;;5023189;28;20280;-50
2023/08/12 02:10:00;;;;;;;3.13;2.30;;;;;;;;;;5022344;28;20347;-53
2023/08/12 02:12:25;;;;;;;6.00;2.30;;;;;;;;;;5022075;28;20182;-52
2023/08/12 02:14:51;;;;;;;3.77;1.90;;;;;;;;;;5019937;28;20450;-52
2023/08/12 02:17:18;;;;;;;2.10;1.90;;;;;;;;;;5019778;28;20205;-53
2023/08/12 02:19:44;;;;;;;6.43;2.30;;;;;;;;;;5038133;28;20217;-53
2023/08/12 02:22:10;;;;;;;8.63;2.53;;;;;;;;;;5022251;28;20273;-54
2023/08/12 02:24:36;;;;;;;4.70;1.83;;;;;;;;;;5021456;28;20170;-52
2023/08/12 02:27:02;;;;;;;5.17;2.20;;;;;;;;;;5022585;28;20269;-50
2023/08/12 02:29:28;;;;;;;4.47;2.00;;;;;;;;;;5022333;28;20276;-53
2023/08/12 02:31:54;;;;;;;3.00;2.60;;;;;;;;;;5022218;28;20217;-49
2023/08/12 02:34:20;;;;;;;2.60;1.70;;;;;;;;;;5022423;28;20193;-49
2023/08/12 02:36:45;;;;;;;2.87;2.03;;;;;;;;;;5021685;28;20231;-48
2023/08/12 02:39:12;;;;;;;2.67;2.00;;;;;;;;;;5021398;28;20174;-49
2023/08/12 02:41:38;;;;;;;6.47;2.37;;;;;;;;;;5020672;28;20273;-53
2023/08/12 02:44:04;;;;;;;2.93;1.97;;;;;;;;;;5020798;28;20268;-49
2023/08/12 02:46:30;;;;;;;2.87;2.10;;;;;;;;;;5020491;28;20174;-53
2023/08/12 02:48:56;;;;;;;5.60;2.00;;;;;;;;;;5020740;28;20181;-49
2023/08/12 02:51:22;;;;;;;9.53;2.80;;;;;;;;;;5021346;28;20181;-50
2023/08/12 02:53:48;;;;;;;2.60;1.93;;;;;;;;;;5020717;28;20174;-48
2023/08/12 02:56:14;;;;;;;3.73;2.23;;;;;;;;;;5020668;28;20185;-51
2023/08/12 02:58:40;;;;;;;3.03;2.30;;;;;;;;;;5038281;28;20472;-51
2023/08/12 03:01:06;;;;;;;2.53;1.93;;;;;;;;;;5038331;28;20335;-48
2023/08/12 03:03:32;;;;;;;7.50;1.73;;;;;;;;;;5038320;28;20260;-51
2023/08/12 03:05:58;;;;;;;4.23;2.37;;;;;;;;;;5021746;28;20178;-49
2023/08/12 03:08:24;;;;;;;3.07;2.30;;;;;;;;;;5021572;28;20206;-51
2023/08/12 03:10:50;;;;;;;5.03;2.30;;;;;;;;;;5020788;28;20248;-49
2023/08/12 03:13:17;;;;;;;3.47;2.10;;;;;;;;;;5038826;28;20472;-54
2023/08/12 03:15:43;;;;;;;2.87;1.90;;;;;;;;;;5021011;28;20173;-50
2023/08/12 03:18:09;;;;;;;5.93;2.50;;;;;;;;;;5021218;28;20545;-50
2023/08/12 03:20:34;;;;;;;2.60;2.00;;;;;;;;;;5045741;28;20694;-50
2023/08/12 03:23:01;;;;;;;5.33;2.30;;;;;;;;;;5057356;28;20213;-52
2023/08/12 03:25:27;;;;;;;5.40;1.97;;;;;;;;;;5057599;28;20272;-51
2023/08/12 03:27:53;;;;;;;12.30;2.63;;;;;;;;;;5058170;28;20153;-49
2023/08/12 03:30:19;;;;;;;4.37;2.80;;;;;;;;;;5057171;28;20181;-49
2023/08/12 03:32:45;;;;;;;4.83;2.10;;;;;;;;;;5058175;28;20179;-52
2023/08/12 03:35:11;;;;;;;2.90;2.33;;;;;;;;;;5056948;28;20219;-49
2023/08/12 03:37:36;;;;;;;2.80;1.77;;;;;;;;;;5056424;28;20217;-52
2023/08/12 03:40:03;;;;;;;3.30;2.10;;;;;;;;;;5056630;28;20276;-49
2023/08/12 03:42:29;;;;;;;4.80;2.10;;;;;;;;;;5056693;28;20169;-49
2023/08/12 03:44:55;;;;;;;3.87;2.17;;;;;;;;;;5057242;28;20174;-52
2023/08/12 03:47:23;;;;;;;2.87;2.10;;;;;;;;;;5056427;28;20181;-52
2023/08/12 03:49:49;;;;;;;4.83;2.30;;;;;;;;;;5056420;28;20185;-53
2023/08/12 03:52:15;;;;;;;7.40;2.90;;;;;;;;;;5056913;28;20182;-48
2023/08/12 03:54:41;;;;;;;3.40;2.37;;;;;;;;;;5056588;28;20184;-51
2023/08/12 03:57:07;;;;;;;3.07;1.93;;;;;;;;;;5056786;28;20173;-55
2023/08/12 03:59:33;;;;;;;2.40;2.20;;;;;;;;;;5057681;28;20204;-53
2023/08/12 04:01:59;;;;;;;8.27;3.37;;;;;;;;;;5056383;28;20276;-51
2023/08/12 04:04:25;;;;;;;1.90;1.80;;;;;;;;;;5056735;28;20173;-52
2023/08/12 04:06:51;;;;;;;4.50;2.37;;;;;;;;;;5055919;28;20181;-53
2023/08/12 04:09:20;;;;;;;3.13;2.17;;;;;;;;;;5056175;28;20527;-50
2023/08/12 04:11:47;;;;;;;3.87;2.30;;;;;;;;;;5056606;28;20169;-50
2023/08/12 04:14:13;;;;;;;4.63;1.90;;;;;;;;;;5056725;28;20177;-53
2023/08/12 04:16:39;;;;;;;3.40;2.40;;;;;;;;;;5056878;28;20165;-52
2023/08/12 04:19:06;;;;;;;3.73;2.60;;;;;;;;;;5053921;28;20613;-51
2023/08/12 04:21:31;;;;;;;4.97;2.90;;;;;;;;;;5020042;28;20217;-48
2023/08/12 04:23:57;;;;;;;2.70;2.23;;;;;;;;;;5037028;28;20174;-51
2023/08/12 04:26:23;;;;;;;3.77;2.60;;;;;;;;;;5036432;28;20166;-52
2023/08/12 04:28:49;;;;;;;3.47;2.20;;;;;;;;;;5036739;28;20231;-52
2023/08/12 04:31:15;;;;;;;3.70;2.73;;;;;;;;;;5019648;28;20194;-52
2023/08/12 04:33:41;;;;;;;3.77;2.30;;;;;;;;;;5020021;28;20655;-50
2023/08/12 04:36:08;;;;;;;3.80;2.20;;;;;;;;;;5020395;28;20656;-52
2023/08/12 04:38:34;;;;;;;2.77;2.43;;;;;;;;;;5020351;28;20231;-56
2023/08/12 04:41:01;;;;;;;4.30;2.13;;;;;;;;;;5020547;28;20202;-49
2023/08/12 04:43:27;;;;;;;5.27;2.20;;;;;;;;;;5041159;28;20181;-51
2023/08/12 04:45:53;;;;;;;4.23;2.50;;;;;;;;;;5022831;28;20282;-54
2023/08/12 04:48:19;;;;;;;2.57;2.20;;;;;;;;;;5040217;28;20170;-52
2023/08/12 04:50:45;;;;;;;2.87;2.43;;;;;;;;;;5022940;28;20178;-48
2023/08/12 04:53:11;;;;;;;2.53;2.33;;;;;;;;;;5034603;28;20181;-50
2023/08/12 04:55:38;;;;;;;5.13;2.70;;;;;;;;;;5017744;28;20180;-49
2023/08/12 04:58:04;;;;;;;4.70;1.93;;;;;;;;;;5017819;28;20184;-53
2023/08/12 05:00:30;;;;;;;4.27;2.50;;;;;;;;;;5019096;28;20205;-51
2023/08/12 05:02:56;;;;;;;4.73;2.47;;;;;;;;;;5017945;28;20469;-50
2023/08/12 05:05:22;;;;;;;5.10;2.43;;;;;;;;;;5035861;28;20193;-48
2023/08/12 05:07:48;;;;;;;4.27;2.47;;;;;;;;;;5018258;28;20247;-53
2023/08/12 05:10:17;;;;;;;2.80;2.53;;;;;;;;;;5035670;28;20170;-48
2023/08/12 05:12:44;;;;;;;6.90;2.80;;;;;;;;;;5018071;28;20600;-54
2023/08/12 05:15:10;;;;;;;12.63;3.13;;;;;;;;;;5036627;28;20264;-48
2023/08/12 05:17:36;;;;;;;5.37;2.53;;;;;;;;;;5019581;28;20204;-51
2023/08/12 05:20:03;;;;;;;3.03;2.17;;;;;;;;;;5037032;28;20496;-50
2023/08/12 05:22:29;;;;;;;4.20;2.87;;;;;;;;;;5058324;28;20196;-49
2023/08/12 05:24:55;;;;;;;4.77;2.60;;;;;;;;;;5059052;28;20174;-50
2023/08/12 05:27:20;;;;;;;3.87;2.67;;;;;;;;;;5058511;28;20212;-50
2023/08/12 05:29:47;;;;;;;3.87;2.67;;;;;;;;;;5059015;28;20259;-51
2023/08/12 05:32:13;;;;;;;5.20;2.40;;;;;;;;;;5058529;28;20246;-53
2023/08/12 05:34:39;;;;;;;2.53;2.33;;;;;;;;;;5057998;28;20177;-49
2023/08/12 05:37:05;;;;;;;3.77;3.03;;;;;;;;;;5058563;28;20197;-51
2023/08/12 05:39:31;;;;;;;2.73;2.43;;;;;;;;;;5058336;28;20197;-51
2023/08/12 05:41:57;;;;;;;2.97;2.23;;;;;;;;;;5059011;28;20162;-51
2023/08/12 05:44:30;;;;;;;4.17;2.47;;;;;;;;;;5059018;28;20161;-49
2023/08/12 05:46:56;;;;;;;7.33;2.83;;;;;;;;;;5059330;28;20219;-55
2023/08/12 05:49:22;;;;;;;3.20;2.90;;;;;;;;;;5058722;28;20204;-51
2023/08/12 05:51:48;;;;;;;3.77;2.70;;;;;;;;;;5056482;28;20182;-50
2023/08/12 05:54:14;;;;;;;8.13;3.23;;;;;;;;;;5058540;28;20170;-49
2023/08/12 05:56:40;;;;;;;4.27;2.80;;;;;;;;;;5058391;28;20226;-50
2023/08/12 05:59:06;;;;;;;4.23;2.73;;;;;;;;;;5056021;28;20276;-54
2023/08/12 06:01:32;;;;;;;3.50;2.50;;;;;;;;;;5057087;28;20669;-51
2023/08/12 06:03:58;;;;;;;3.33;2.77;;;;;;;;;;5056837;28;20506;-54
2023/08/12 06:06:24;;;;;;;3.40;2.83;;;;;;;;;;5056683;28;20182;-52
2023/08/12 06:08:50;;;;;;;3.53;2.53;;;;;;;;;;5057634;28;20169;-53
2023/08/12 06:11:16;;;;;;;3.93;2.70;;;;;;;;;;5057611;28;20315;-53
2023/08/12 06:13:42;;;;;;;6.10;2.97;;;;;;;;;;5056832;28;20244;-53
2023/08/12 06:16:08;;;;;;;4.43;3.07;;;;;;;;;;5057798;28;20183;-53
2023/08/12 06:18:35;;;;;;;5.10;3.10;;;;;;;;;;5057494;28;20174;-49
2023/08/12 06:21:01;;;;;;;4.20;3.00;;;;;;;;;;5054372;28;20701;-50
2023/08/12 06:23:27;;;;;;;4.77;2.73;;;;;;;;;;5053698;28;20635;-48
2023/08/12 06:25:53;;;;;;;5.17;3.03;;;;;;;;;;5052458;28;20264;-50
2023/08/12 06:28:19;;;;;;;3.70;3.40;;;;;;;;;;5054356;28;20176;-51
2023/08/12 06:30:48;;;;;;;4.50;3.80;;;;;;;;;;5053043;28;20260;-51
2023/08/12 06:33:20;;;;;;;4.17;3.23;;;;;;;;;;5052439;28;20169;-50
2023/08/12 06:35:50;;;;;;;6.67;3.20;;;;;;;;;;5052947;28;20188;-54
2023/08/12 06:38:17;;;;;;;6.07;3.70;;;;;;;;;;5054544;28;20549;-54
2023/08/12 06:40:43;;;;;;;4.50;3.50;;;;;;;;;;5054173;28;20209;-53
2023/08/12 06:43:09;;;;;;;3.53;3.23;;;;;;;;;;5054283;28;20173;-50
2023/08/12 06:45:35;;;;;;;5.17;3.07;;;;;;;;;;5053261;28;20189;-55
2023/08/12 06:48:04;;;;;;;4.20;3.80;;;;;;;;;;5053977;28;20166;-51
2023/08/12 06:50:31;;;;;;;6.13;3.47;;;;;;;;;;5054278;28;20267;-52
2023/08/12 06:52:57;;;;;;;8.70;3.37;;;;;;;;;;5053436;28;20369;-49
2023/08/12 06:55:24;;;;;;;5.83;3.93;;;;;;;;;;5052939;28;20451;-52
2023/08/12 06:57:50;;;;;;;6.90;3.50;;;;;;;;;;5054299;28;20178;-52
2023/08/12 07:00:16;;;;;;;4.40;3.40;;;;;;;;;;5053365;28;20251;-56
2023/08/12 07:02:43;;;;;;;4.90;4.40;;;;;;;;;;5053200;28;20542;-54
2023/08/12 07:05:09;;;;;;;6.40;4.07;;;;;;;;;;5052931;28;20550;-49
2023/08/12 07:07:35;;;;;;;5.07;3.90;;;;;;;;;;5054328;28;20173;-49
2023/08/12 07:10:01;;;;;;;6.23;3.77;;;;;;;;;;5053951;28;20263;-51
2023/08/12 07:12:27;;;;;;;5.93;4.33;;;;;;;;;;5049877;28;20181;-49
2023/08/12 07:14:53;;;;;;;7.27;3.73;;;;;;;;;;5048904;28;20184;-51
2023/08/12 07:17:19;;;;;;;7.07;4.80;;;;;;;;;;5047716;28;20173;-51
2023/08/12 07:19:45;;;;;;;5.53;4.73;;;;;;;;;;5045284;28;20320;-49
2023/08/12 07:22:11;;;;;;;5.30;3.87;;;;;;;;;;5017259;28;20285;-53
2023/08/12 07:24:37;;;;;;;6.97;4.10;;;;;;;;;;5035039;28;20172;-53
2023/08/12 07:27:03;;;;;;;6.63;4.80;;;;;;;;;;5036299;28;20171;-54
2023/08/12 07:29:29;;;;;;;7.27;4.47;;;;;;;;;;5019148;28;20494;-52
2023/08/12 07:31:55;;;;;;;6.10;4.70;;;;;;;;;;5018964;28;20174;-50
2023/08/12 07:34:21;;;;;;;7.90;4.33;;;;;;;;;;5019872;28;20174;-54
2023/08/12 07:36:47;;;;;;;9.43;5.40;;;;;;;;;;5036092;28;20256;-50
2023/08/12 07:39:13;;;;;;;7.70;4.60;;;;;;;;;;5019863;28;20197;-51
2023/08/12 07:41:39;;;;;;;6.13;5.53;;;;;;;;;;5036637;28;20174;-51
2023/08/12 07:44:05;;;;;;;6.23;5.63;;;;;;;;;;5020344;28;20196;-53
2023/08/12 07:46:31;;;;;;;7.80;4.70;;;;;;;;;;5037267;28;20196;-50
2023/08/12 07:49:10;;;;;;;9.30;5.53;;;;;;;;;;5019203;28;20165;-50
2023/08/12 07:51:36;;;;;;;4.90;4.47;;;;;;;;;;5036618;28;20185;-49
2023/08/12 07:54:01;;;;;;;7.07;5.73;;;;;;;;;;5036024;28;20174;-51
2023/08/12 07:56:27;;;;;;;11.03;5.90;;;;;;;;;;5018339;28;20204;-49
2023/08/12 07:58:53;;;;;;;7.33;5.77;;;;;;;;;;5018668;28;20260;-52
2023/08/12 08:01:19;;;;;;;8.93;7.03;;;;;;;;;;5017385;28;20210;-52
2023/08/12 08:03:46;;;;;;;11.57;6.93;;;;;;;;;;5035289;28;20172;-53
2023/08/12 08:06:12;;;;;;;7.93;6.00;;;;;;;;;;5035621;28;20178;-54
2023/08/12 08:08:38;;;;;;;8.20;6.07;;;;;;;;;;5035920;28;20166;-52
2023/08/12 08:11:04;;;;;;;9.33;5.73;;;;;;;;;;5018809;28;20181;-56
2023/08/12 08:13:30;;;;;;;7.13;5.37;;;;;;;;;;5018975;28;20174;-49
2023/08/12 08:15:56;;;;;;;7.07;6.37;;;;;;;;;;5018765;28;20239;-50
2023/08/12 08:18:22;;;;;;;10.40;6.47;;;;;;;;;;5018447;28;20181;-52
2023/08/12 08:20:48;;;;;;;7.57;5.70;;;;;;;;;;5046452;28;20225;-51
2023/08/12 08:23:15;;;;;;;9.20;6.00;;;;;;;;;;5056394;28;20187;-52
2023/08/12 08:25:41;;;;;;;7.93;5.67;;;;;;;;;;5055641;28;20235;-51
2023/08/12 08:28:07;;;;;;;7.83;5.57;;;;;;;;;;5054213;28;20169;-52
2023/08/12 08:30:33;;;;;;;5.30;4.80;;;;;;;;;;5053980;28;20177;-52
2023/08/12 08:33:00;;;;;;;8.60;5.10;;;;;;;;;;5053284;28;20187;-52
2023/08/12 08:35:26;;;;;;;5.50;4.90;;;;;;;;;;5053976;28;20184;-51
2023/08/12 08:37:52;;;;;;;8.07;6.17;;;;;;;;;;5054741;28;20635;-53
2023/08/12 08:40:18;;;;;;;7.17;5.83;;;;;;;;;;5055315;28;20200;-53
2023/08/12 08:42:47;;;;;;;6.67;4.83;;;;;;;;;;5055473;28;20216;-51
2023/08/12 08:45:15;;;;;;;7.83;6.97;;;;;;;;;;5038020;28;20844;-50
2023/08/12 08:47:41;;;;;;;11.97;7.23;;;;;;;;;;5055294;28;20542;-50
2023/08/12 08:50:09;;;;;;;9.23;7.90;;;;;;;;;;5055397;28;20530;-49
2023/08/12 08:52:37;;;;;;;8.13;5.83;;;;;;;;;;5053969;28;20173;-51
2023/08/12 08:55:04;;;;;;;10.07;6.27;;;;;;;;;;5055354;28;20272;-49
2023/08/12 08:57:32;;;;;;;6.57;5.00;;;;;;;;;;5054552;28;20174;-52
2023/08/12 08:59:59;;;;;;;7.00;4.77;;;;;;;;;;5051816;28;20208;-48
2023/08/12 09:02:27;;;;;;;4.93;4.43;;;;;;;;;;5053024;28;20310;-51
2023/08/12 09:04:54;;;;;;;7.47;5.37;;;;;;;;;;5036411;28;20184;-54
2023/08/12 09:07:20;;;;;;;6.50;5.83;;;;;;;;;;5052753;28;20173;-51
2023/08/12 09:09:49;;;;;;;8.10;6.60;;;;;;;;;;5053042;28;20189;-53
2023/08/12 09:12:17;;;;;;;6.17;5.00;;;;;;;;;;5035661;28;20647;-49
2023/08/12 09:14:43;;;;;;;5.60;4.70;;;;;;;;;;5036583;28;20229;-55
2023/08/12 09:17:11;;;;;;;8.90;5.73;;;;;;;;;;5052912;28;20209;-53
2023/08/12 09:19:38;;;;;;;5.77;4.90;;;;;;;;;;5047956;28;20220;-50
2023/08/12 09:22:05;;;;;;;7.90;5.83;;;;;;;;;;5034864;28;20596;-52
2023/08/12 09:24:31;;;;;;;6.00;4.70;;;;;;;;;;5034573;28;20843;-52
2023/08/12 09:26:57;;;;;;;7.67;5.63;;;;;;;;;;5018572;28;20175;-53
2023/08/12 09:29:24;;;;;;;6.33;5.30;;;;;;;;;;5021359;28;20178;-52
2023/08/12 09:31:50;;;;;;;9.37;5.63;;;;;;;;;;5020899;28;20170;-50
2023/08/12 09:34:18;;;;;;;5.50;4.77;;;;;;;;;;5020737;28;20170;-50
2023/08/12 09:36:44;;;;;;;8.50;5.93;;;;;;;;;;5020722;28;20221;-54
2023/08/12 09:39:10;;;;;;;7.43;5.27;;;;;;;;;;5037380;28;20224;-50
2023/08/12 09:41:39;;;;;;;5.30;4.67;;;;;;;;;;5019539;28;20217;-51
2023/08/12 09:44:14;;;;;;;6.70;6.00;;;;;;;;;;5035375;28;20197;-51
2023/08/12 09:46:40;;;;;;;8.00;4.50;;;;;;;;;;5018998;28;20177;-53
2023/08/12 09:49:07;;;;;;;6.60;4.77;;;;;;;;;;5018621;28;20260;-51
2023/08/12 09:51:37;;;;;;;11.43;7.60;;;;;;;;;;5019231;28;20182;-50
2023/08/12 09:54:03;;;;;;;13.70;7.37;;;;;;;;;;5019523;28;20701;-53
2023/08/12 09:56:33;;;;;;;7.67;6.50;;;;;;;;;;5018794;28;20180;-50
2023/08/12 09:58:59;;;;;;;10.27;7.63;;;;;;;;;;5019500;28;20174;-51
2023/08/12 10:01:26;;;;;;;10.40;8.17;;;;;;;;;;5019398;28;20206;-50
2023/08/12 10:03:52;;;;;;;9.30;7.43;;;;;;;;;;5035814;28;20666;-51
2023/08/12 10:06:18;;;;;;;7.50;6.03;;;;;;;;;;5018380;28;20682;-50
2023/08/12 10:08:48;;;;;;;10.23;7.97;;;;;;;;;;5035655;28;20166;-54
2023/08/12 10:11:15;;;;;;;9.07;7.67;;;;;;;;;;5036528;28;20271;-55
2023/08/12 10:13:41;;;;;;;10.20;6.73;;;;;;;;;;5019460;28;20281;-50
2023/08/12 10:16:09;;;;;;;10.63;7.97;;;;;;;;;;5035084;28;20563;-53
2023/08/12 10:18:35;;;;;;;9.80;6.57;;;;;;;;;;5034264;28;20314;-54
2023/08/12 10:21:03;;;;;;;7.37;6.23;;;;;;;;;;5049080;28;20229;-54
2023/08/12 10:23:30;;;;;;;7.13;4.60;;;;;;;;;;5056621;28;20177;-55
2023/08/12 10:25:56;;;;;;;6.10;4.30;;;;;;;;;;5055252;28;20330;-52
2023/08/12 10:28:23;;;;;;;6.30;3.87;;;;;;;;;;5056562;28;20256;-50
2023/08/12 10:30:49;;;;;;;9.30;8.03;;;;;;;;;;5056329;28;20204;-54
2023/08/12 10:33:18;;;;;;;8.80;6.30;;;;;;;;;;5057310;28;20218;-50
2023/08/12 10:35:46;;;;;;;9.80;6.93;;;;;;;;;;5057086;28;20256;-53
2023/08/12 10:38:22;;;;;;;17.17;8.50;;;;;;;;;;5055423;28;20177;-53
2023/08/12 10:40:48;;;;;;;10.83;8.57;;;;;;;;;;5055344;28;20204;-52
2023/08/12 10:43:14;;;;;;;9.37;7.67;;;;;;;;;;5054227;28;20266;-49
2023/08/12 10:45:43;;;;;;;8.17;6.07;;;;;;;;;;5054454;28;20201;-50
2023/08/12 10:48:10;;;;;;;9.77;6.23;;;;;;;;;;5052795;28;20173;-51
2023/08/12 10:50:36;;;;;;;6.50;4.63;;;;;;;;;;5054029;28;20324;-49
2023/08/12 10:53:22;;;;;;;6.90;4.67;;;;;;;;;;5053847;28;20923;-48
2023/08/12 10:55:56;;;;;;;8.20;5.50;;;;;;;;;;5053012;28;20400;-54
2023/08/12 10:58:29;;;;;;;6.90;6.10;;;;;;;;;;5054153;28;20259;-49
2023/08/12 11:00:56;;;;;;;8.33;5.77;;;;;;;;;;5053996;28;20397;-54
2023/08/12 11:03:22;;;;;;;5.90;4.27;;;;;;;;;;5053252;28;20580;-49
2023/08/12 11:05:48;;;;;;;5.60;3.80;;;;;;;;;;5054427;28;20517;-51
2023/08/12 11:08:15;;;;;;;8.10;4.87;;;;;;;;;;5054687;28;20597;-53
2023/08/12 11:10:43;;;;;;;8.00;5.57;;;;;;;;;;5055234;28;20173;-54
2023/08/12 11:13:12;;;;;;;6.93;4.70;;;;;;;;;;5056796;28;20576;-54
2023/08/12 11:15:38;;;;;;;5.78;4.28;;;;;;;;;;5054922;28;20177;-51
2023/08/12 11:18:04;;;;;;;5.55;3.90;;;;;;;;;;5055265;28;20173;-53
2023/08/12 11:20:30;;;;;;;6.30;4.43;;;;;;;;;;5044393;28;20317;-54
2023/08/12 11:22:58;;;;;;;5.60;3.90;;;;;;;;;;5017185;28;20186;-54
2023/08/12 11:25:27;;;;;;;6.63;4.10;;;;;;;;;;5017363;28;20170;-51
2023/08/12 11:27:53;;;;;;;5.95;3.83;;;;;;;;;;5016576;28;20343;-54
2023/08/12 11:30:20;;;;;;;4.00;3.60;;;;;;;;;;5016500;28;20819;-52
2023/08/12 11:32:48;;;;;;;4.73;3.50;;;;;;;;;;5016373;28;20499;-51
2023/08/12 11:35:16;;;;;;;8.40;4.10;;;;;;;;;;5015632;28;20249;-55
2023/08/12 11:37:46;;;;;;;6.13;4.00;;;;;;;;;;5016641;28;20713;-55
2023/08/12 11:40:14;;;;;;;5.73;3.57;;;;;;;;;;5016328;28;20205;-52
2023/08/12 11:42:42;;;;;;;6.57;4.20;;;;;;;;;;5033297;28;20170;-55
2023/08/12 11:45:09;;;;;;;4.67;3.93;;;;;;;;;;5016779;28;20182;-51
2023/08/12 11:47:37;;;;;;;7.40;4.37;;;;;;;;;;5034744;28;20170;-55
2023/08/12 11:50:09;;;;;;;6.47;4.57;;;;;;;;;;5016461;28;20182;-50
2023/08/12 11:52:35;;;;;;;5.67;4.33;;;;;;;;;;5035084;28;20185;-49
2023/08/12 11:55:02;;;;;;;6.03;4.83;;;;;;;;;;5017864;28;20209;-49
2023/08/12 11:57:28;;;;;;;4.23;3.63;;;;;;;;;;5016841;28;20174;-49
2023/08/12 12:00:03;;;;;;;6.97;4.27;;;;;;;;;;5015825;28;20283;-51
2023/08/12 12:02:29;;;;;;;8.10;4.23;;;;;;;;;;5032839;28;20158;-54
2023/08/12 12:04:55;;;;;;;5.77;4.17;;;;;;;;;;5016105;28;20200;-54
2023/08/12 12:07:27;;;;;;;4.83;4.30;;;;;;;;;;5014840;28;20186;-51
2023/08/12 12:09:53;;;;;;;4.33;3.10;;;;;;;;;;5015761;28;20170;-53
2023/08/12 12:12:27;;;;;;;4.43;3.50;;;;;;;;;;5034150;28;20492;-54
2023/08/12 12:14:54;;;;;;;4.03;3.47;;;;;;;;;;5017015;28;20185;-55
2023/08/12 12:17:23;;;;;;;3.57;3.17;;;;;;;;;;5033372;28;20255;-51
2023/08/12 12:19:57;;;;;;;4.03;3.60;;;;;;;;;;5022238;28;20640;-54
2023/08/12 12:22:34;;;;;;;5.27;3.80;;;;;;;;;;5053513;28;20178;-54
2023/08/12 12:25:01;;;;;;;5.10;3.53;;;;;;;;;;5054425;28;20230;-52
2023/08/12 12:27:27;;;;;;;5.07;4.20;;;;;;;;;;5052743;28;20181;-56
2023/08/12 12:29:54;;;;;;;5.07;4.20;;;;;;;;;;5053141;28;20326;-53
2023/08/12 12:32:23;;;;;;;5.27;3.90;;;;;;;;;;5052589;28;20173;-49
2023/08/12 12:34:49;;;;;;;3.60;3.30;;;;;;;;;;5052271;28;20181;-52
2023/08/12 12:37:16;;;;;;;3.83;3.53;;;;;;;;;;5052022;28;20185;-53
2023/08/12 12:39:43;;;;;;;4.40;3.90;;;;;;;;;;5052061;28;20444;-56
2023/08/12 12:42:11;;;;;;;6.70;4.67;;;;;;;;;;5050346;28;20435;-51
2023/08/12 12:44:37;;;;;;;4.40;3.77;;;;;;;;;;5050831;28;20364;-53
2023/08/12 12:47:03;;;;;;;4.53;4.13;;;;;;;;;;5050891;28;20169;-51
2023/08/12 12:49:31;;;;;;;4.67;4.07;;;;;;;;;;5051625;28;20178;-52
2023/08/12 12:51:57;;;;;;;5.13;4.63;;;;;;;;;;5051423;28;20185;-53
2023/08/12 12:54:23;;;;;;;6.13;4.70;;;;;;;;;;5035387;28;20177;-52
2023/08/12 12:56:50;;;;;;;4.47;4.07;;;;;;;;;;5051859;28;20322;-51
2023/08/12 12:59:17;;;;;;;4.97;4.47;;;;;;;;;;5052788;28;20623;-51
2023/08/12 13:01:44;;;;;;;7.23;5.30;;;;;;;;;;5052801;28;20834;-53
2023/08/12 13:04:11;;;;;;;5.83;5.20;;;;;;;;;;5057298;28;20535;-52
2023/08/12 13:06:37;;;;;;;6.40;4.90;;;;;;;;;;5059038;28;20176;-50
2023/08/12 13:09:05;;;;;;;8.97;4.87;;;;;;;;;;5057123;28;20174;-49
2023/08/12 13:11:32;;;;;;;5.33;4.83;;;;;;;;;;5056333;28;20585;-52
2023/08/12 13:13:59;;;;;;;5.50;4.97;;;;;;;;;;5056802;28;20702;-52
2023/08/12 13:16:25;;;;;;;5.73;5.13;;;;;;;;;;5058409;28;20181;-52
2023/08/12 13:18:52;;;;;;;5.80;5.13;;;;;;;;;;5058212;28;20615;-54
2023/08/12 13:21:18;;;;;;;9.47;6.17;;;;;;;;;;5057517;28;20228;-53
2023/08/12 13:23:45;;;;;;;6.57;5.80;;;;;;;;;;5057673;28;20227;-56
2023/08/12 13:26:13;;;;;;;6.17;5.57;;;;;;;;;;5056676;28;20181;-52
2023/08/12 13:28:39;;;;;;;5.67;5.13;;;;;;;;;;5056067;28;20553;-50
2023/08/12 13:31:05;;;;;;;7.37;6.03;;;;;;;;;;5054642;28;20547;-55
2023/08/12 13:33:34;;;;;;;8.13;7.33;;;;;;;;;;5054160;28;20169;-53
2023/08/12 13:36:01;;;;;;;8.40;6.07;;;;;;;;;;5053499;28;20185;-50
2023/08/12 13:38:28;;;;;;;6.67;6.07;;;;;;;;;;5054492;28;20188;-53
2023/08/12 13:40:54;;;;;;;6.43;5.47;;;;;;;;;;5035763;28;20641;-52
2023/08/12 13:43:21;;;;;;;6.97;5.87;;;;;;;;;;5053844;28;20184;-55
2023/08/12 13:45:47;;;;;;;6.20;5.60;;;;;;;;;;5054413;28;20181;-53
2023/08/12 13:48:13;;;;;;;7.90;4.43;;;;;;;;;;5052365;28;20169;-53
2023/08/12 13:50:41;;;;;;;8.67;5.30;;;;;;;;;;5054010;28;20199;-52
2023/08/12 13:53:08;;;;;;;7.20;6.10;;;;;;;;;;5054303;28;20180;-53
2023/08/12 13:55:36;;;;;;;6.80;6.10;;;;;;;;;;5054389;28;20759;-49
2023/08/12 13:58:02;;;;;;;7.20;6.27;;;;;;;;;;5055521;28;20185;-55
2023/08/12 14:00:28;;;;;;;7.67;6.13;;;;;;;;;;5056908;28;20211;-52
2023/08/12 14:02:54;;;;;;;7.07;5.53;;;;;;;;;;5056051;28;20195;-51
2023/08/12 14:05:20;;;;;;;6.27;3.87;;;;;;;;;;5055467;28;20221;-51
2023/08/12 14:07:46;;;;;;;6.03;4.37;;;;;;;;;;5055090;28;20174;-54
2023/08/12 14:10:13;;;;;;;6.40;4.00;;;;;;;;;;5055801;28;20265;-53
2023/08/12 14:12:40;;;;;;;6.60;4.30;;;;;;;;;;5056595;28;20169;-51
2023/08/12 14:15:06;;;;;;;6.00;3.87;;;;;;;;;;5057826;28;20671;-55
2023/08/12 14:17:32;;;;;;;5.40;4.00;;;;;;;;;;5056809;28;20178;-54
2023/08/12 14:20:01;;;;;;;4.60;4.20;;;;;;;;;;5049343;28;20321;-51
2023/08/12 14:22:27;;;;;;;4.70;4.30;;;;;;;;;;5018084;28;20170;-48
2023/08/12 14:24:54;;;;;;;5.87;4.50;;;;;;;;;;5035663;28;20179;-50
2023/08/12 14:27:21;;;;;;;6.40;5.17;;;;;;;;;;5018139;28;20174;-50
2023/08/12 14:29:48;;;;;;;5.33;4.17;;;;;;;;;;5033523;28;20339;-51
2023/08/12 14:32:16;;;;;;;7.43;4.20;;;;;;;;;;5016946;28;20185;-51
2023/08/12 14:34:45;;;;;;;5.67;4.53;;;;;;;;;;5016676;28;20166;-51
2023/08/12 14:37:11;;;;;;;4.33;3.93;;;;;;;;;;5033979;28;20174;-48
2023/08/12 14:39:39;;;;;;;5.30;4.73;;;;;;;;;;5016023;28;20201;-51
2023/08/12 14:42:08;;;;;;;7.83;5.87;;;;;;;;;;5016429;28;20247;-50